createdAt,value
2022-08-04T00:00:45.353Z,6.78
2022-08-04T00:03:21.317Z,6.85
2022-08-04T00:06:02.675Z,7.40
2022-08-04T00:08:39.601Z,6.57
2022-08-04T00:11:11.999Z,7.05
2022-08-04T00:13:52.695Z,5.90
2022-08-04T00:16:38.427Z,7.00
2022-08-04T00:19:14.461Z,7.60
2022-08-04T00:21:49.441Z,6.63
2022-08-04T00:24:19.450Z,5.97
2022-08-04T00:26:48.855Z,6.63
2022-08-04T00:29:18.107Z,6.45
2022-08-04T00:31:56.245Z,6.53
2022-08-04T00:34:30.260Z,6.57
2022-08-04T00:36:59.801Z,6.57
2022-08-04T00:39:31.394Z,6.63
2022-08-04T00:42:37.533Z,7.00
2022-08-04T00:46:10.725Z,6.22
2022-08-04T00:49:01.540Z,5.93
2022-08-04T00:51:46.790Z,5.70
2022-08-04T00:54:24.349Z,6.22
2022-08-04T00:57:31.175Z,6.18
2022-08-04T01:00:09.130Z,5.95
2022-08-04T01:02:47.497Z,5.85
2022-08-04T01:05:23.309Z,6.00
2022-08-04T01:08:09.918Z,6.25
2022-08-04T01:10:57.030Z,6.15
2022-08-04T01:13:40.419Z,6.25
2022-08-04T01:16:11.529Z,6.53
2022-08-04T01:18:52.765Z,6.78
2022-08-04T01:21:42.073Z,6.07
2022-08-04T01:24:30.944Z,6.05
2022-08-04T01:27:05.603Z,6.22
2022-08-04T01:29:47.398Z,6.25
2022-08-04T01:32:25.569Z,6.20
2022-08-04T01:35:07.865Z,5.90
2022-08-04T01:37:50.727Z,6.00
2022-08-04T01:40:20.655Z,5.80
2022-08-04T01:42:54.494Z,6.50
2022-08-04T01:45:26.644Z,6.60
2022-08-04T01:47:57.037Z,6.68
2022-08-04T01:50:28.185Z,6.40
2022-08-04T01:52:57.735Z,6.28
2022-08-04T01:55:51.821Z,7.00
2022-08-04T01:58:21.081Z,6.25
2022-08-04T02:00:58.801Z,6.93
2022-08-04T02:04:18.063Z,6.57
2022-08-04T02:06:32.938Z,6.25
2022-08-04T02:09:11.908Z,6.63
2022-08-04T02:11:44.217Z,6.50
2022-08-04T02:14:35.503Z,6.53
2022-08-04T02:17:12.612Z,6.57
2022-08-04T02:20:00.415Z,6.07
2022-08-04T02:22:30.888Z,6.50
2022-08-04T02:25:07.639Z,6.20
2022-08-04T02:27:59.931Z,6.22
2022-08-04T02:30:36.565Z,6.45
2022-08-04T02:33:08.997Z,6.65
2022-08-04T02:35:41.726Z,6.00
2022-08-04T02:38:25.340Z,6.25
2022-08-04T02:40:58.928Z,6.50
2022-08-04T02:43:51.836Z,6.47
2022-08-04T02:46:21.828Z,6.60
2022-08-04T02:48:54.165Z,6.00
2022-08-04T02:51:25.918Z,6.55
2022-08-04T02:53:57.009Z,6.85
2022-08-04T02:56:28.707Z,6.60
2022-08-04T02:59:01.268Z,7.07
2022-08-04T03:01:31.084Z,7.15
2022-08-04T03:04:24.951Z,6.82
2022-08-04T03:07:15.644Z,6.63
2022-08-04T03:10:11.379Z,7.00
2022-08-04T03:13:18.930Z,6.90
2022-08-04T03:16:02.836Z,7.38
2022-08-04T03:18:51.725Z,7.13
2022-08-04T03:22:12.253Z,7.18
2022-08-04T03:25:16.255Z,7.53
2022-08-04T03:28:20.434Z,7.30
2022-08-04T03:31:11.855Z,7.28
2022-08-04T03:34:04.762Z,7.40
2022-08-04T03:37:09.764Z,7.88
2022-08-04T03:40:15.115Z,6.93
2022-08-04T03:43:59.173Z,8.30
2022-08-04T03:46:40.794Z,7.82
2022-08-04T03:49:54.693Z,7.45
2022-08-04T03:53:11.882Z,7.57
2022-08-04T03:56:14.304Z,7.32
2022-08-04T03:59:04.033Z,7.60
2022-08-04T04:02:02.751Z,7.90
2022-08-04T04:05:01.692Z,7.82
2022-08-04T04:08:03.932Z,8.13
2022-08-04T04:10:52.103Z,8.00
2022-08-04T04:13:42.305Z,8.15
2022-08-04T04:16:43.644Z,8.10
2022-08-04T04:19:31.314Z,8.73
2022-08-04T04:22:13.783Z,8.75
2022-08-04T04:25:01.634Z,8.65
2022-08-04T04:27:41.501Z,8.82
2022-08-04T04:30:14.600Z,8.70
2022-08-04T04:33:16.041Z,8.70
2022-08-04T04:35:56.530Z,8.43
2022-08-04T04:38:46.780Z,9.07
2022-08-04T04:41:36.594Z,8.77
2022-08-04T04:44:39.072Z,8.20
2022-08-04T04:47:16.024Z,7.80
2022-08-04T04:49:52.945Z,8.13
2022-08-04T04:52:30.045Z,8.40
2022-08-04T04:55:06.018Z,7.57
2022-08-04T04:57:54.108Z,7.47
2022-08-04T05:00:27.775Z,8.05
2022-08-04T05:03:17.058Z,7.45
2022-08-04T05:06:01.867Z,7.45
2022-08-04T05:09:09.638Z,7.20
2022-08-04T05:14:34.409Z,6.78
2022-08-04T05:15:11.834Z,7.10
2022-08-04T05:17:44.502Z,6.60
2022-08-04T05:20:18.514Z,6.25
2022-08-04T05:22:54.270Z,6.88
2022-08-04T05:25:26.941Z,7.10
2022-08-04T05:28:02.413Z,6.50
2022-08-04T05:30:35.682Z,5.25
2022-08-04T05:33:06.603Z,6.13
2022-08-04T05:36:20.765Z,5.88
2022-08-04T05:38:37.923Z,6.03
2022-08-04T05:41:10.132Z,6.18
2022-08-04T05:43:42.278Z,6.00
2022-08-04T05:46:12.592Z,6.25
2022-08-04T05:48:43.994Z,8.98
2022-08-04T05:51:14.232Z,5.45
2022-08-04T05:53:47.412Z,5.97
2022-08-04T05:56:18.036Z,5.20
2022-08-04T05:58:48.702Z,4.53
2022-08-04T06:01:19.418Z,5.10
2022-08-04T06:03:51.792Z,5.10
2022-08-04T06:06:23.035Z,4.95
2022-08-04T06:08:59.312Z,4.30
2022-08-04T06:11:29.992Z,4.70
2022-08-04T06:14:02.413Z,5.32
2022-08-04T06:16:36.433Z,4.70
2022-08-04T06:20:02.961Z,4.57
2022-08-04T06:22:01.731Z,4.03
2022-08-04T06:24:33.713Z,4.10
2022-08-04T06:27:05.552Z,3.60
2022-08-04T06:29:37.474Z,4.35
2022-08-04T06:32:27.157Z,4.18
2022-08-04T06:35:03.353Z,4.45
2022-08-04T06:37:42.058Z,4.20
2022-08-04T06:40:32.021Z,3.75
2022-08-04T06:43:03.867Z,4.10
2022-08-04T06:45:35.741Z,3.75
2022-08-04T06:48:06.635Z,3.95
2022-08-04T06:51:31.438Z,3.70
2022-08-04T06:53:27.522Z,4.05
2022-08-04T06:56:00.979Z,3.90
2022-08-04T06:58:33.586Z,4.15
2022-08-04T07:01:04.627Z,3.40
2022-08-04T07:03:34.384Z,3.67
2022-08-04T07:06:06.204Z,3.55
2022-08-04T07:08:44.234Z,3.88
2022-08-04T07:11:16.033Z,3.35
2022-08-04T07:13:46.822Z,3.10
2022-08-04T07:16:17.068Z,3.10
2022-08-04T07:18:46.493Z,3.20
2022-08-04T07:21:23.535Z,3.60
2022-08-04T07:23:53.383Z,3.40
2022-08-04T07:26:29.345Z,3.47
2022-08-04T07:28:59.897Z,3.70
2022-08-04T07:31:34.086Z,3.00
2022-08-04T07:34:20.789Z,3.50
2022-08-04T07:36:55.724Z,3.65
2022-08-04T07:39:28.019Z,3.40
2022-08-04T07:42:03.073Z,3.20
2022-08-04T07:44:33.354Z,2.92
2022-08-04T07:47:03.924Z,4.15
2022-08-04T07:49:55.924Z,3.10
2022-08-04T07:52:23.222Z,3.10
2022-08-04T07:54:53.057Z,2.95
2022-08-04T07:57:40.953Z,3.20
2022-08-04T08:00:14.829Z,2.60
2022-08-04T08:02:44.595Z,2.75
2022-08-04T08:05:17.076Z,2.80
2022-08-04T08:07:50.706Z,2.72
2022-08-04T08:10:24.633Z,2.60
2022-08-04T08:12:56.322Z,2.63
2022-08-04T08:15:25.601Z,2.70
2022-08-04T08:17:57.763Z,2.60
2022-08-04T08:20:33.489Z,2.65
2022-08-04T08:23:04.495Z,2.55
2022-08-04T08:25:34.485Z,2.42
2022-08-04T08:28:07.073Z,2.58
2022-08-04T08:30:37.313Z,2.60
2022-08-04T08:33:09.844Z,2.70
2022-08-04T08:35:54.109Z,2.40
2022-08-04T08:38:40.514Z,2.50
2022-08-04T08:41:43.153Z,2.50
2022-08-04T08:44:37.735Z,2.72
2022-08-04T08:47:20.186Z,2.70
2022-08-04T08:50:19.898Z,2.40
2022-08-04T08:53:07.551Z,2.28
2022-08-04T08:55:51.011Z,2.33
2022-08-04T08:58:40.320Z,2.63
2022-08-04T09:01:24.824Z,2.30
2022-08-04T09:04:23.658Z,2.33
2022-08-04T09:07:11.841Z,2.45
2022-08-04T09:09:55.093Z,2.47
2022-08-04T09:12:35.259Z,2.50
2022-08-04T09:15:13.721Z,2.33
2022-08-04T09:17:50.320Z,2.63
2022-08-04T09:20:31.982Z,2.70
2022-08-04T09:23:10.278Z,2.30
2022-08-04T09:25:44.290Z,2.40
2022-08-04T09:28:50.883Z,3.05
2022-08-04T09:31:18.681Z,2.50
2022-08-04T09:34:03.098Z,2.60
2022-08-04T09:36:38.993Z,3.30
2022-08-04T09:39:23.780Z,2.83
2022-08-04T09:42:05.780Z,2.78
2022-08-04T09:44:53.899Z,2.55
2022-08-04T09:47:39.563Z,2.90
2022-08-04T09:50:32.051Z,2.70
2022-08-04T09:53:14.451Z,3.80
2022-08-04T09:55:53.536Z,2.58
2022-08-04T09:58:37.721Z,2.72
2022-08-04T10:01:11.891Z,3.20
2022-08-04T10:03:44.771Z,2.97
2022-08-04T10:06:37.981Z,3.28
2022-08-04T10:09:22.714Z,3.20
2022-08-04T10:12:04.212Z,2.92
2022-08-04T10:14:48.061Z,3.00
2022-08-04T10:17:43.605Z,3.53
2022-08-04T10:20:36.559Z,3.92
2022-08-04T10:23:55.819Z,3.45
2022-08-04T10:26:34.860Z,2.85
2022-08-04T10:29:10.711Z,2.70
2022-08-04T10:31:48.127Z,3.55
2022-08-04T10:34:22.398Z,4.72
2022-08-04T10:36:58.989Z,3.40
2022-08-04T10:39:43.110Z,3.53
2022-08-04T10:42:23.778Z,3.70
2022-08-04T10:45:08.626Z,7.35
2022-08-04T10:47:59.117Z,4.70
2022-08-04T10:50:32.279Z,3.22
2022-08-04T10:53:09.534Z,2.97
2022-08-04T10:56:07.414Z,2.90
2022-08-04T10:58:47.478Z,2.80
2022-08-04T11:02:00.688Z,3.33
2022-08-04T11:04:27.347Z,3.03
2022-08-04T11:07:00.150Z,3.50
2022-08-04T11:09:31.526Z,2.85
2022-08-04T11:12:08.659Z,2.92
2022-08-04T11:14:44.810Z,3.17
2022-08-04T11:17:21.493Z,2.90
2022-08-04T11:20:18.146Z,2.80
2022-08-04T11:22:56.937Z,3.20
2022-08-04T11:25:31.337Z,2.83
2022-08-04T11:28:08.018Z,2.92
2022-08-04T11:30:43.091Z,2.75
2022-08-04T11:33:23.424Z,2.90
2022-08-04T11:35:59.461Z,2.90
2022-08-04T11:38:35.414Z,3.10
2022-08-04T11:41:12.034Z,2.97
2022-08-04T11:44:00.550Z,3.40
2022-08-04T11:46:38.502Z,3.03
2022-08-04T11:49:12.138Z,2.70
2022-08-04T11:51:42.847Z,3.40
2022-08-04T11:54:13.806Z,2.90
2022-08-04T11:56:44.328Z,3.00
2022-08-04T11:59:15.169Z,3.20
2022-08-04T12:01:58.319Z,3.42
2022-08-04T12:04:36.602Z,3.00
2022-08-04T12:07:32.021Z,3.10
2022-08-04T12:10:16.739Z,3.13
2022-08-04T12:13:14.821Z,3.47
2022-08-04T12:15:57.790Z,4.63
2022-08-04T12:18:34.692Z,3.15
2022-08-04T12:21:10.508Z,2.92
2022-08-04T12:23:42.104Z,2.80
2022-08-04T12:26:16.503Z,2.72
2022-08-04T12:31:47.253Z,2.70
2022-08-04T12:34:29.717Z,2.90
2022-08-04T12:37:06.919Z,2.78
2022-08-04T12:40:27.373Z,2.78
2022-08-04T12:42:35.155Z,2.78
2022-08-04T12:45:10.455Z,2.80
2022-08-04T12:47:43.149Z,2.85
2022-08-04T12:50:17.069Z,2.95
2022-08-04T12:53:05.654Z,2.88
2022-08-04T12:55:37.415Z,2.70
2022-08-04T12:58:18.951Z,2.70
2022-08-04T13:02:09.881Z,3.00
2022-08-04T13:04:04.247Z,2.95
2022-08-04T13:06:36.341Z,2.92
2022-08-04T13:09:09.279Z,3.00
2022-08-04T13:11:49.561Z,3.30
2022-08-04T13:14:28.471Z,2.65
2022-08-04T13:17:02.109Z,2.95
2022-08-04T13:19:39.659Z,3.15
2022-08-04T13:22:12.092Z,2.67
2022-08-04T13:24:56.705Z,2.70
2022-08-04T13:27:43.336Z,2.80
2022-08-04T13:30:22.615Z,2.97
2022-08-04T13:32:59.309Z,2.80
2022-08-04T13:35:55.838Z,2.58
2022-08-04T13:38:22.008Z,2.97
2022-08-04T13:40:52.534Z,2.83
2022-08-04T13:44:15.821Z,2.80
2022-08-04T13:46:27.900Z,2.50
2022-08-04T13:51:59.034Z,2.90
2022-08-04T13:54:30.597Z,2.88
2022-08-04T13:57:02.862Z,2.78
2022-08-04T13:59:38.227Z,2.70
2022-08-04T14:02:10.303Z,2.70
2022-08-04T14:04:43.659Z,2.75
2022-08-04T14:07:18.076Z,2.58
2022-08-04T14:10:04.809Z,2.78
2022-08-04T14:12:45.685Z,2.58
2022-08-04T14:16:01.624Z,2.75
2022-08-04T14:18:32.255Z,2.30
2022-08-04T14:21:06.768Z,2.47
2022-08-04T14:23:46.966Z,2.60
2022-08-04T14:26:20.133Z,2.50
2022-08-04T14:29:08.508Z,2.55
2022-08-04T14:31:55.403Z,2.70
2022-08-04T14:34:28.971Z,3.60
2022-08-04T14:37:16.806Z,3.25
2022-08-04T14:40:08.919Z,3.05
2022-08-04T14:42:44.590Z,2.75
2022-08-04T14:45:36.253Z,2.20
2022-08-04T14:48:09.442Z,2.42
2022-08-04T14:50:41.483Z,2.35
2022-08-04T14:53:12.865Z,2.70
2022-08-04T14:55:46.613Z,2.60
2022-08-04T14:58:34.748Z,2.47
2022-08-04T15:01:11.734Z,2.30
2022-08-04T15:03:51.871Z,2.60
2022-08-04T15:06:24.180Z,2.40
2022-08-04T15:08:55.336Z,2.83
2022-08-04T15:11:26.493Z,2.72
2022-08-04T15:13:56.691Z,2.50
2022-08-04T15:16:27.632Z,2.50
2022-08-04T15:18:57.742Z,2.35
2022-08-04T15:21:31.273Z,2.42
2022-08-04T15:24:01.173Z,2.58
2022-08-04T15:26:35.892Z,2.30
2022-08-04T15:29:15.921Z,2.30
2022-08-04T15:32:06.198Z,2.60
2022-08-04T15:35:02.962Z,2.55
2022-08-04T15:37:40.692Z,2.90
2022-08-04T15:40:13.917Z,2.38
2022-08-04T15:42:50.273Z,2.60
2022-08-04T15:46:34.922Z,2.35
2022-08-04T15:48:34.843Z,2.50
2022-08-04T15:51:15.440Z,2.80
2022-08-04T15:54:30.654Z,2.42
2022-08-04T15:57:03.778Z,2.47
2022-08-04T16:00:00.745Z,2.67
2022-08-04T16:02:44.526Z,2.50
2022-08-04T16:05:47.091Z,2.90
2022-08-04T16:08:18.213Z,2.40
2022-08-04T16:10:51.830Z,2.17
2022-08-04T16:13:23.212Z,2.45
2022-08-04T16:15:55.787Z,2.60
2022-08-04T16:18:40.845Z,2.38
2022-08-04T16:21:23.666Z,2.40
2022-08-04T16:24:11.708Z,2.58
2022-08-04T16:26:57.158Z,2.80
2022-08-04T16:29:31.152Z,2.58
2022-08-04T16:32:19.321Z,2.67
2022-08-04T16:34:55.419Z,2.50
2022-08-04T16:37:31.489Z,2.30
2022-08-04T16:40:35.274Z,2.70
2022-08-04T16:43:13.259Z,2.30
2022-08-04T16:45:48.823Z,2.78
2022-08-04T16:48:20.701Z,2.53
2022-08-04T16:51:03.316Z,2.80
2022-08-04T16:53:57.988Z,2.50
2022-08-04T16:56:33.129Z,2.75
2022-08-04T16:59:10.009Z,2.53
2022-08-04T17:01:40.077Z,2.88
2022-08-04T17:04:12.861Z,2.50
2022-08-04T17:06:43.720Z,2.47
2022-08-04T17:09:14.610Z,2.83
2022-08-04T17:11:44.882Z,2.67
2022-08-04T17:14:14.528Z,2.70
2022-08-04T17:16:44.705Z,2.45
2022-08-04T17:19:24.437Z,2.47
2022-08-04T17:22:02.910Z,2.50
2022-08-04T17:24:36.172Z,2.40
2022-08-04T17:28:19.952Z,2.58
2022-08-04T17:29:55.366Z,2.40
2022-08-04T17:32:25.250Z,2.67
2022-08-04T17:34:58.717Z,2.45
2022-08-04T17:37:40.588Z,2.70
2022-08-04T17:40:13.312Z,2.25
2022-08-04T17:42:45.198Z,2.70
2022-08-04T17:45:50.303Z,2.70
2022-08-04T17:48:10.324Z,2.70
2022-08-04T17:50:43.812Z,2.67
2022-08-04T17:53:13.518Z,3.03
2022-08-04T17:55:44.376Z,2.97
2022-08-04T17:58:20.928Z,2.78
2022-08-04T18:03:51.658Z,2.60
2022-08-04T18:06:25.579Z,3.15
2022-08-04T18:11:57.276Z,3.42
2022-08-04T18:14:29.058Z,3.60
2022-08-04T18:16:58.906Z,3.97
2022-08-04T18:19:31.564Z,2.92
2022-08-04T18:22:02.192Z,3.20
2022-08-04T18:24:35.359Z,3.25
2022-08-04T18:27:24.636Z,3.55
2022-08-04T18:30:32.571Z,2.95
2022-08-04T18:33:04.496Z,3.00
2022-08-04T18:36:31.679Z,3.30
2022-08-04T18:38:27.195Z,3.05
2022-08-04T18:40:58.836Z,2.90
2022-08-04T18:43:40.516Z,2.80
2022-08-04T18:46:14.647Z,2.83
2022-08-04T18:48:52.124Z,2.60
2022-08-04T18:51:30.916Z,3.05
2022-08-04T18:54:02.018Z,2.60
2022-08-04T18:56:33.330Z,2.85
2022-08-04T18:59:03.801Z,3.42
2022-08-04T19:02:13.756Z,3.10
2022-08-04T19:04:32.778Z,3.00
2022-08-04T19:07:24.649Z,3.80
2022-08-04T19:09:57.637Z,3.50
2022-08-04T19:12:28.906Z,3.80
2022-08-04T19:14:59.522Z,3.05
2022-08-04T19:20:30.770Z,3.30
2022-08-04T19:24:32.793Z,3.72
2022-08-04T19:26:03.598Z,3.60
2022-08-04T19:28:37.725Z,3.63
2022-08-04T19:31:08.874Z,3.80
2022-08-04T19:33:58.814Z,3.90
2022-08-04T19:36:31.222Z,4.20
2022-08-04T19:39:03.153Z,3.83
2022-08-04T19:42:06.009Z,3.97
2022-08-04T19:44:30.131Z,3.80
2022-08-04T19:47:00.808Z,3.83
2022-08-04T19:50:03.687Z,4.00
2022-08-04T19:52:33.832Z,3.78
2022-08-04T19:55:09.668Z,3.78
2022-08-04T19:57:46.506Z,3.83
2022-08-04T20:00:33.824Z,3.78
2022-08-04T20:03:11.317Z,3.28
2022-08-04T20:05:53.942Z,3.53
2022-08-04T20:08:25.385Z,3.58
2022-08-04T20:10:55.055Z,3.22
2022-08-04T20:13:36.905Z,3.28
2022-08-04T20:16:28.808Z,3.00
2022-08-04T20:19:03.362Z,3.53
2022-08-04T20:21:53.602Z,3.58
2022-08-04T20:24:39.861Z,3.90
2022-08-04T20:27:15.756Z,4.13
2022-08-04T20:30:16.342Z,4.55
2022-08-04T20:32:52.734Z,4.40
2022-08-04T20:35:26.729Z,4.53
2022-08-04T20:38:00.871Z,4.32
2022-08-04T20:40:30.744Z,4.70
2022-08-04T20:43:00.550Z,3.75
2022-08-04T20:45:55.651Z,4.43
2022-08-04T20:48:20.575Z,4.25
2022-08-04T20:50:55.120Z,4.35
2022-08-04T20:53:32.816Z,4.00
2022-08-04T20:56:19.049Z,3.67
2022-08-04T20:58:59.543Z,3.95
2022-08-04T21:01:30.772Z,4.10
2022-08-04T21:04:27.327Z,4.75
2022-08-04T21:06:57.308Z,4.45
2022-08-04T21:09:38.019Z,4.05
2022-08-04T21:12:26.762Z,4.50
2022-08-04T21:15:01.509Z,4.57
2022-08-04T21:17:57.600Z,4.95
2022-08-04T21:20:32.456Z,4.68
2022-08-04T21:23:03.618Z,4.82
2022-08-04T21:25:42.895Z,5.32
2022-08-04T21:28:20.373Z,5.05
2022-08-04T21:30:52.860Z,5.13
2022-08-04T21:33:49.848Z,5.22
2022-08-04T21:39:05.569Z,5.35
2022-08-04T21:42:19.800Z,4.70
2022-08-04T21:44:29.656Z,4.65
2022-08-04T21:46:58.788Z,4.63
2022-08-04T21:49:29.544Z,4.78
2022-08-04T21:52:01.680Z,5.22
2022-08-04T21:54:36.908Z,5.50
2022-08-04T21:57:06.814Z,5.03
2022-08-04T21:59:45.042Z,4.97
2022-08-04T22:02:14.961Z,5.20
2022-08-04T22:04:46.102Z,4.97
2022-08-04T22:07:16.743Z,5.15
2022-08-04T22:10:00.255Z,4.88
2022-08-04T22:12:33.726Z,5.10
2022-08-04T22:15:22.551Z,4.90
2022-08-04T22:17:54.350Z,5.00
2022-08-04T22:20:27.618Z,5.40
2022-08-04T22:23:05.993Z,5.43
2022-08-04T22:25:37.648Z,4.78
2022-08-04T22:28:08.143Z,5.15
2022-08-04T22:30:38.734Z,5.53
2022-08-04T22:33:17.435Z,4.93
2022-08-04T22:35:49.932Z,5.32
2022-08-04T22:38:21.263Z,4.88
2022-08-04T22:41:03.451Z,5.47
2022-08-04T22:43:34.687Z,4.88
2022-08-04T22:46:06.499Z,5.38
2022-08-04T22:48:38.068Z,5.18
2022-08-04T22:51:09.366Z,4.88
2022-08-04T22:53:42.178Z,5.22
2022-08-04T22:56:37.915Z,5.20
2022-08-04T22:59:10.006Z,5.35
2022-08-04T23:01:58.122Z,5.05
2022-08-04T23:04:30.408Z,5.13
2022-08-04T23:07:01.470Z,4.53
2022-08-04T23:09:50.642Z,5.10
2022-08-04T23:12:28.413Z,4.97
2022-08-04T23:14:58.787Z,5.32
2022-08-04T23:17:28.920Z,5.32
2022-08-04T23:19:59.950Z,4.93
2022-08-04T23:22:36.904Z,4.95
2022-08-04T23:25:15.780Z,5.70
2022-08-04T23:27:48.096Z,5.32
2022-08-04T23:30:21.912Z,4.82
2022-08-04T23:32:54.889Z,5.00
2022-08-04T23:35:24.134Z,4.82
2022-08-04T23:37:57.014Z,5.18
2022-08-04T23:40:34.150Z,5.35
2022-08-04T23:43:17.321Z,5.07
2022-08-04T23:46:07.349Z,5.03
2022-08-04T23:48:38.956Z,4.75
2022-08-04T23:51:14.358Z,5.22
2022-08-04T23:54:03.363Z,5.05
2022-08-04T23:56:34.355Z,5.03
2022-08-04T23:59:04.690Z,4.90
